Terminal Aerodrome Forecast
Issued by NWS Nashville, TN

Home | Current Version | Previous Version | Text Only | Print | Product List | Glossary On
Versions: 1 2 3 4 5 6 7 8 9 10 11 12 13 14 15 16
000
FTUS44 KOHX 020200 AAA
TAFCSV
TAF AMD
KCSV 020230Z 0203/0224 VRB04KT 2SM -RA BR OVC002
     FM020400 30006KT 1SM -RA BR OVC001
     FM021000 36006KT 2SM -RA BR OVC001
     FM021200 04007KT 2SM -FZRA BR OVC001
     FM021500 03006KT 4SM -RADZ BR OVC003
     FM021800 04005KT P6SM OVC015=

USA.gov is the U.S. government's official web portal to all federal, state and local government web resources and services.